createdAt,value
2023-05-03T00:00:44.654Z,8.46
2023-05-03T00:03:13.794Z,8.47
2023-05-03T00:05:41.478Z,8.48
2023-05-03T00:08:09.097Z,8.44
2023-05-03T00:10:36.569Z,8.38
2023-05-03T00:13:04.081Z,8.35
2023-05-03T00:15:31.537Z,8.36
2023-05-03T00:17:59.197Z,8.35
2023-05-03T00:20:26.739Z,8.32
2023-05-03T00:22:54.177Z,8.31
2023-05-03T00:25:21.617Z,8.38
2023-05-03T00:27:49.059Z,8.39
2023-05-03T00:30:19.586Z,8.41
2023-05-03T00:32:47.292Z,8.46
2023-05-03T00:35:14.751Z,8.52
2023-05-03T00:37:42.218Z,8.53
2023-05-03T00:40:10.296Z,8.53
2023-05-03T00:42:37.980Z,8.49
2023-05-03T00:45:06.849Z,8.47
2023-05-03T00:47:34.926Z,8.48
2023-05-03T00:50:02.904Z,8.47
2023-05-03T00:52:31.233Z,8.47
2023-05-03T00:54:59.333Z,8.47
2023-05-03T00:57:28.610Z,8.42
2023-05-03T00:59:57.308Z,8.38
2023-05-03T01:02:25.870Z,8.34
2023-05-03T01:04:55.342Z,8.26
2023-05-03T01:07:50.878Z,8.20
2023-05-03T01:10:32.179Z,8.17
2023-05-03T01:13:28.971Z,8.18
2023-05-03T01:16:12.396Z,8.17
2023-05-03T01:18:44.391Z,8.10
2023-05-03T01:21:16.727Z,8.13
2023-05-03T01:24:03.519Z,7.97
2023-05-03T01:26:31.071Z,7.95
2023-05-03T01:28:58.644Z,7.93
2023-05-03T01:31:48.822Z,7.98
2023-05-03T01:34:34.944Z,7.94
2023-05-03T01:37:04.343Z,7.88
2023-05-03T01:40:07.571Z,7.91
2023-05-03T01:42:38.406Z,7.91
2023-05-03T01:45:06.570Z,7.79
2023-05-03T01:47:34.169Z,7.84
2023-05-03T01:50:01.841Z,7.71
2023-05-03T01:52:30.412Z,7.68
2023-05-03T01:54:58.010Z,7.69
2023-05-03T01:57:25.430Z,7.63
2023-05-03T01:59:52.890Z,7.63
2023-05-03T02:02:20.995Z,7.59
2023-05-03T02:04:48.713Z,7.57
2023-05-03T02:07:16.289Z,7.55
2023-05-03T02:09:44.392Z,7.51
2023-05-03T02:12:11.858Z,7.53
2023-05-03T02:14:39.356Z,7.52
2023-05-03T02:17:08.666Z,7.54
2023-05-03T02:19:36.366Z,7.47
2023-05-03T02:22:03.787Z,7.49
2023-05-03T02:24:31.341Z,7.50
2023-05-03T02:26:58.958Z,7.46
2023-05-03T02:29:26.513Z,7.45
2023-05-03T02:31:55.097Z,7.38
2023-05-03T02:34:22.704Z,7.30
2023-05-03T02:36:51.810Z,7.28
2023-05-03T02:39:19.363Z,7.22
2023-05-03T02:41:47.325Z,7.21
2023-05-03T02:44:15.253Z,7.21
2023-05-03T02:46:42.869Z,7.17
2023-05-03T02:49:10.646Z,7.12
2023-05-03T02:51:38.154Z,7.09
2023-05-03T02:54:05.685Z,7.02
2023-05-03T02:56:33.711Z,6.88
2023-05-03T02:59:01.621Z,6.84
2023-05-03T03:01:30.000Z,6.76
2023-05-03T03:03:57.863Z,6.81
2023-05-03T03:06:25.519Z,6.69
2023-05-03T03:08:53.676Z,6.69
2023-05-03T03:11:21.219Z,6.52
2023-05-03T03:13:48.730Z,6.50
2023-05-03T03:16:16.257Z,6.47
2023-05-03T03:18:43.761Z,6.51
2023-05-03T03:21:11.341Z,6.50
2023-05-03T03:23:38.901Z,6.42
2023-05-03T03:26:06.499Z,6.38
2023-05-03T03:28:34.772Z,6.50
2023-05-03T03:31:07.579Z,6.57
2023-05-03T03:33:36.045Z,6.59
2023-05-03T03:36:10.766Z,6.58
2023-05-03T03:38:41.953Z,6.67
2023-05-03T03:41:11.839Z,6.66
2023-05-03T03:43:39.716Z,6.70
2023-05-03T03:46:12.304Z,6.68
2023-05-03T03:48:40.401Z,6.69
2023-05-03T03:51:08.069Z,6.75
2023-05-03T03:53:42.442Z,6.60
2023-05-03T03:56:10.177Z,6.51
2023-05-03T03:58:37.699Z,6.52
2023-05-03T04:01:08.021Z,6.60
2023-05-03T04:03:35.699Z,6.66
2023-05-03T04:06:03.306Z,6.74
2023-05-03T04:08:31.414Z,6.74
2023-05-03T04:10:59.468Z,6.79
2023-05-03T04:13:27.093Z,6.85
2023-05-03T04:15:57.114Z,6.85
2023-05-03T04:18:26.308Z,6.89
2023-05-03T04:20:56.097Z,6.91
2023-05-03T04:23:23.820Z,6.89
2023-05-03T04:25:51.616Z,6.96
2023-05-03T04:28:20.578Z,7.03
2023-05-03T04:30:50.770Z,7.02
2023-05-03T04:33:23.708Z,7.10
2023-05-03T04:35:53.648Z,7.12
2023-05-03T04:38:22.290Z,7.16
2023-05-03T04:40:50.783Z,7.17
2023-05-03T04:43:18.651Z,7.20
2023-05-03T04:45:48.450Z,7.20
2023-05-03T04:48:20.169Z,7.12
2023-05-03T04:50:47.858Z,7.19
2023-05-03T04:53:18.062Z,7.25
2023-05-03T04:55:51.187Z,7.31
2023-05-03T04:58:18.851Z,7.31
2023-05-03T05:00:46.806Z,7.34
2023-05-03T05:03:21.704Z,7.42
2023-05-03T05:05:51.542Z,7.49
2023-05-03T05:08:21.148Z,7.62
2023-05-03T05:10:53.457Z,7.67
2023-05-03T05:13:25.130Z,7.71
2023-05-03T05:15:52.585Z,7.75
2023-05-03T05:18:20.110Z,7.77
2023-05-03T05:20:49.139Z,7.89
2023-05-03T05:23:16.654Z,8.00
2023-05-03T05:25:47.349Z,8.09
2023-05-03T05:28:15.082Z,8.19
2023-05-03T05:30:43.203Z,8.36
2023-05-03T05:33:10.845Z,8.52
2023-05-03T05:35:39.315Z,8.43
2023-05-03T05:38:07.526Z,8.56
2023-05-03T05:40:35.505Z,8.64
2023-05-03T05:43:03.020Z,8.67
2023-05-03T05:45:34.912Z,8.75
2023-05-03T05:48:04.767Z,8.76
2023-05-03T05:50:34.312Z,8.97
2023-05-03T05:53:09.132Z,9.02
2023-05-03T05:55:40.640Z,9.12
2023-05-03T05:58:08.504Z,9.09
2023-05-03T06:00:42.288Z,9.06
2023-05-03T06:03:09.848Z,9.16
2023-05-03T06:05:37.597Z,9.24
2023-05-03T06:08:05.334Z,9.58
2023-05-03T06:10:33.852Z,9.75
2023-05-03T06:13:01.292Z,9.90
2023-05-03T06:15:28.998Z,9.96
2023-05-03T06:17:56.611Z,9.90
2023-05-03T06:20:24.539Z,10.06
2023-05-03T06:22:53.052Z,10.05
2023-05-03T06:25:21.433Z,9.92
2023-05-03T06:27:50.766Z,10.02
2023-05-03T06:30:22.002Z,9.72
2023-05-03T06:32:50.721Z,10.09
2023-05-03T06:35:19.831Z,10.42
2023-05-03T06:37:48.418Z,10.92
2023-05-03T06:40:16.112Z,10.93
2023-05-03T06:42:43.669Z,10.87
2023-05-03T06:45:20.751Z,10.80
2023-05-03T06:47:50.231Z,11.35
2023-05-03T06:50:20.244Z,11.76
2023-05-03T06:52:48.754Z,11.93
2023-05-03T06:55:16.802Z,12.35
2023-05-03T06:57:44.374Z,12.56
2023-05-03T07:00:12.559Z,12.93
2023-05-03T07:02:40.297Z,13.62
2023-05-03T07:05:08.539Z,13.95
2023-05-03T07:07:36.428Z,13.51
2023-05-03T07:10:04.709Z,12.54
2023-05-03T07:12:32.428Z,13.17
2023-05-03T07:14:59.858Z,14.05
2023-05-03T07:17:27.418Z,14.74
2023-05-03T07:19:55.093Z,14.72
2023-05-03T07:22:25.124Z,13.57
2023-05-03T07:24:54.940Z,14.14
2023-05-03T07:27:22.777Z,14.53
2023-05-03T07:29:50.328Z,15.22
2023-05-03T07:32:17.957Z,15.41
2023-05-03T07:34:45.585Z,15.23
2023-05-03T07:37:13.102Z,15.29
2023-05-03T07:39:41.553Z,15.59
2023-05-03T07:42:09.066Z,16.06
2023-05-03T07:44:36.528Z,16.47
2023-05-03T07:47:04.590Z,15.34
2023-05-03T07:49:35.644Z,15.08
2023-05-03T07:52:03.314Z,15.14
2023-05-03T07:54:30.931Z,15.12
2023-05-03T07:56:58.445Z,15.35
2023-05-03T07:59:25.903Z,14.91
2023-05-03T08:01:53.482Z,13.02
2023-05-03T08:04:21.467Z,13.32
2023-05-03T08:06:49.916Z,12.36
2023-05-03T08:09:17.812Z,12.74
2023-05-03T08:11:45.264Z,12.04
2023-05-03T08:14:13.149Z,11.74
2023-05-03T08:16:40.644Z,11.75
2023-05-03T08:19:08.389Z,12.24
2023-05-03T08:21:35.858Z,13.09
2023-05-03T08:24:06.187Z,13.38
2023-05-03T08:26:34.248Z,13.67
2023-05-03T08:29:03.653Z,14.60
2023-05-03T08:31:31.520Z,14.24
2023-05-03T08:33:59.083Z,13.57
2023-05-03T08:36:26.562Z,13.85
2023-05-03T08:38:54.002Z,12.29
2023-05-03T08:41:30.348Z,12.70
2023-05-03T08:44:00.216Z,13.00
2023-05-03T08:46:28.958Z,11.56
2023-05-03T08:48:57.257Z,11.73
2023-05-03T08:51:25.261Z,12.90
2023-05-03T08:53:52.803Z,13.44
2023-05-03T08:56:33.734Z,14.64
2023-05-03T08:59:07.904Z,14.38
2023-05-03T09:01:37.426Z,14.02
2023-05-03T09:04:05.549Z,13.17
2023-05-03T09:06:34.400Z,12.67
2023-05-03T09:09:07.508Z,12.13
2023-05-03T09:11:36.816Z,12.49
2023-05-03T09:14:15.618Z,12.81
2023-05-03T09:16:44.830Z,13.14
2023-05-03T09:19:14.449Z,13.12
2023-05-03T09:21:44.165Z,13.36
2023-05-03T09:24:20.363Z,13.32
2023-05-03T09:26:52.048Z,13.18
2023-05-03T09:29:37.736Z,13.30
2023-05-03T09:32:06.532Z,13.50
2023-05-03T09:34:35.829Z,13.40
2023-05-03T09:37:03.434Z,13.98
2023-05-03T09:39:31.426Z,14.08
2023-05-03T09:41:59.035Z,13.61
2023-05-03T09:44:43.984Z,14.55
2023-05-03T09:47:12.279Z,15.55
2023-05-03T09:49:39.871Z,16.45
2023-05-03T09:52:08.530Z,16.90
2023-05-03T09:54:36.426Z,17.23
2023-05-03T09:57:05.941Z,15.30
2023-05-03T09:59:34.923Z,14.31
2023-05-03T10:02:05.668Z,13.21
2023-05-03T10:04:44.044Z,13.08
2023-05-03T10:07:17.853Z,13.21
2023-05-03T10:09:48.106Z,13.35
2023-05-03T10:12:19.076Z,13.67
2023-05-03T10:14:48.423Z,13.84
2023-05-03T10:17:45.569Z,13.91
2023-05-03T10:20:15.082Z,14.80
2023-05-03T10:23:14.564Z,15.00
2023-05-03T10:26:13.588Z,14.73
2023-05-03T10:28:41.466Z,14.89
2023-05-03T10:31:48.074Z,14.18
2023-05-03T10:34:26.030Z,14.07
2023-05-03T10:36:53.600Z,13.66
2023-05-03T10:39:21.696Z,14.65
2023-05-03T10:42:00.029Z,15.72
2023-05-03T10:44:29.785Z,15.31
2023-05-03T10:46:57.675Z,15.76
2023-05-03T10:49:26.679Z,16.13
2023-05-03T10:51:54.215Z,16.20
2023-05-03T10:54:21.796Z,16.27
2023-05-03T10:56:54.390Z,14.34
2023-05-03T10:59:23.094Z,13.94
2023-05-03T11:01:53.227Z,13.63
2023-05-03T11:04:36.175Z,14.20
2023-05-03T11:07:04.662Z,14.40
2023-05-03T11:09:34.377Z,14.64
2023-05-03T11:12:08.796Z,14.12
2023-05-03T11:14:36.667Z,13.95
2023-05-03T11:17:04.168Z,14.60
2023-05-03T11:19:31.933Z,15.06
2023-05-03T11:21:59.491Z,14.78
2023-05-03T11:24:27.671Z,14.76
2023-05-03T11:26:55.075Z,14.56
2023-05-03T11:29:24.980Z,14.02
2023-05-03T11:31:52.718Z,13.56
2023-05-03T11:34:20.174Z,14.49
2023-05-03T11:36:47.726Z,14.26
2023-05-03T11:39:16.210Z,13.52
2023-05-03T11:41:44.665Z,12.90
2023-05-03T11:44:17.869Z,12.92
2023-05-03T11:46:47.342Z,13.21
2023-05-03T11:49:19.493Z,13.64
2023-05-03T11:51:50.973Z,14.48
2023-05-03T11:54:26.048Z,14.25
2023-05-03T11:56:59.700Z,14.31
2023-05-03T11:59:35.078Z,14.65
2023-05-03T12:02:04.548Z,14.08
2023-05-03T12:04:32.859Z,14.58
2023-05-03T12:07:02.361Z,13.85
2023-05-03T12:09:31.799Z,13.42
2023-05-03T12:12:02.233Z,13.71
2023-05-03T12:14:58.397Z,14.44
2023-05-03T12:17:43.466Z,14.60
2023-05-03T12:22:58.038Z,13.87
2023-05-03T12:25:33.447Z,14.08
2023-05-03T12:30:35.603Z,14.49
2023-05-03T12:33:04.854Z,15.07
2023-05-03T12:35:34.028Z,15.08
2023-05-03T12:38:04.477Z,15.61
2023-05-03T12:40:34.595Z,15.12
2023-05-03T12:43:03.666Z,15.79
2023-05-03T12:45:34.450Z,15.92
2023-05-03T12:48:03.283Z,16.19
2023-05-03T12:50:32.003Z,16.09
2023-05-03T12:53:02.666Z,16.22
2023-05-03T12:55:36.253Z,15.54
2023-05-03T13:00:48.508Z,14.83
2023-05-03T13:03:32.851Z,15.36
2023-05-03T13:06:08.121Z,15.59
2023-05-03T13:08:48.178Z,15.41
2023-05-03T13:11:19.454Z,15.56
2023-05-03T13:13:47.261Z,15.36
2023-05-03T13:16:14.956Z,14.49
2023-05-03T13:18:43.216Z,15.04
2023-05-03T13:21:12.239Z,15.48
2023-05-03T13:23:39.630Z,15.35
2023-05-03T13:26:07.269Z,15.02
2023-05-03T13:28:34.762Z,15.06
2023-05-03T13:31:02.147Z,15.10
2023-05-03T13:33:29.709Z,15.45
2023-05-03T13:35:57.569Z,14.62
2023-05-03T13:38:25.048Z,14.85
2023-05-03T13:40:52.783Z,14.68
2023-05-03T13:43:20.462Z,14.86
2023-05-03T13:45:49.595Z,14.93
2023-05-03T13:48:18.851Z,15.45
2023-05-03T13:50:46.864Z,15.34
2023-05-03T13:53:14.313Z,15.01
2023-05-03T13:55:41.792Z,13.95
2023-05-03T13:58:09.299Z,13.97
2023-05-03T14:00:36.792Z,13.80
2023-05-03T14:03:04.571Z,14.14
2023-05-03T14:05:32.155Z,14.25
2023-05-03T14:07:59.827Z,13.73
2023-05-03T14:10:27.298Z,14.06
2023-05-03T14:12:54.886Z,14.57
2023-05-03T14:15:22.405Z,15.02
2023-05-03T14:17:49.942Z,15.18
2023-05-03T14:20:17.758Z,14.81
2023-05-03T14:22:46.270Z,14.54
2023-05-03T14:25:13.877Z,14.80
2023-05-03T14:27:41.297Z,15.23
2023-05-03T14:30:10.120Z,15.53
2023-05-03T14:32:37.683Z,15.78
2023-05-03T14:35:05.549Z,14.94
2023-05-03T14:37:33.731Z,14.83
2023-05-03T14:40:01.751Z,14.60
2023-05-03T14:42:32.987Z,14.38
2023-05-03T14:45:00.606Z,14.53
2023-05-03T14:47:28.028Z,14.57
2023-05-03T14:49:56.401Z,14.59
2023-05-03T14:52:23.893Z,14.40
2023-05-03T14:54:51.430Z,14.86
2023-05-03T14:57:18.885Z,15.22
2023-05-03T14:59:47.845Z,14.89
2023-05-03T15:02:15.407Z,14.33
2023-05-03T15:04:43.391Z,13.86
2023-05-03T15:07:11.548Z,14.33
2023-05-03T15:09:39.303Z,14.86
2023-05-03T15:12:07.570Z,14.88
2023-05-03T15:14:34.949Z,14.66
2023-05-03T15:17:02.443Z,13.96
2023-05-03T15:19:30.049Z,14.22
2023-05-03T15:21:58.641Z,14.47
2023-05-03T15:24:26.167Z,14.79
2023-05-03T15:26:53.662Z,15.01
2023-05-03T15:29:21.783Z,15.33
2023-05-03T15:31:49.285Z,15.13
2023-05-03T15:34:18.259Z,14.87
2023-05-03T15:36:46.086Z,15.04
2023-05-03T15:39:13.619Z,14.90
2023-05-03T15:41:41.126Z,14.52
2023-05-03T15:44:10.051Z,14.69
2023-05-03T15:46:38.654Z,14.76
2023-05-03T15:49:07.721Z,14.66
2023-05-03T15:51:35.474Z,14.81
2023-05-03T15:54:02.989Z,14.54
2023-05-03T15:56:31.334Z,14.35
2023-05-03T15:58:58.772Z,14.25
2023-05-03T16:01:26.414Z,13.87
2023-05-03T16:03:53.992Z,14.10
2023-05-03T16:06:22.271Z,14.07
2023-05-03T16:08:49.719Z,14.18
2023-05-03T16:11:17.199Z,14.40
2023-05-03T16:13:44.884Z,14.63
2023-05-03T16:16:12.491Z,14.87
2023-05-03T16:18:40.031Z,14.26
2023-05-03T16:21:07.544Z,13.57
2023-05-03T16:23:35.118Z,13.28
2023-05-03T16:26:13.306Z,13.25
2023-05-03T16:28:41.499Z,12.95
2023-05-03T16:31:09.020Z,12.89
2023-05-03T16:33:36.438Z,12.87
2023-05-03T16:36:04.148Z,12.77
2023-05-03T16:38:32.286Z,12.79
2023-05-03T16:41:00.375Z,12.75
2023-05-03T16:43:27.978Z,12.82
2023-05-03T16:46:02.731Z,12.76
2023-05-03T16:48:30.553Z,12.72
2023-05-03T16:50:59.479Z,12.90
2023-05-03T16:53:27.347Z,13.06
2023-05-03T16:55:55.026Z,12.94
2023-05-03T16:58:22.530Z,12.90
2023-05-03T17:00:50.156Z,12.73
2023-05-03T17:03:17.988Z,12.50
2023-05-03T17:05:45.762Z,12.56
2023-05-03T17:08:13.686Z,12.48
2023-05-03T17:10:42.786Z,12.42
2023-05-03T17:13:10.518Z,12.30
2023-05-03T17:15:37.927Z,12.25
2023-05-03T17:18:05.633Z,12.25
2023-05-03T17:20:34.873Z,12.12
2023-05-03T17:23:02.328Z,11.99
2023-05-03T17:25:29.800Z,11.83
2023-05-03T17:27:57.388Z,11.73
2023-05-03T17:30:24.879Z,11.57
2023-05-03T17:32:52.478Z,11.55
2023-05-03T17:35:20.045Z,11.48
2023-05-03T17:37:47.612Z,11.50
2023-05-03T17:40:15.325Z,11.47
2023-05-03T17:42:42.817Z,11.44
2023-05-03T17:45:11.045Z,11.33
2023-05-03T17:47:38.686Z,11.31
2023-05-03T17:50:07.038Z,11.25
2023-05-03T17:52:34.591Z,11.22
2023-05-03T17:55:02.803Z,11.15
2023-05-03T17:57:30.407Z,11.15
2023-05-03T17:59:57.893Z,11.05
2023-05-03T18:02:25.489Z,11.05
2023-05-03T18:04:53.608Z,11.02
2023-05-03T18:07:21.049Z,10.98
2023-05-03T18:09:48.595Z,10.95
2023-05-03T18:12:16.077Z,10.97
2023-05-03T18:14:43.607Z,10.96
2023-05-03T18:17:11.030Z,10.89
2023-05-03T18:19:38.474Z,10.84
2023-05-03T18:22:06.103Z,10.78
2023-05-03T18:24:33.628Z,10.79
2023-05-03T18:27:01.014Z,10.82
2023-05-03T18:29:28.602Z,10.76
2023-05-03T18:31:57.520Z,10.75
2023-05-03T18:34:27.229Z,10.72
2023-05-03T18:36:54.759Z,10.73
2023-05-03T18:39:22.828Z,10.72
2023-05-03T18:41:50.658Z,10.68
2023-05-03T18:44:18.072Z,10.67
2023-05-03T18:46:45.533Z,10.66
2023-05-03T18:49:13.041Z,10.67
2023-05-03T18:51:40.623Z,10.64
2023-05-03T18:54:08.045Z,10.65
2023-05-03T18:56:35.476Z,10.82
2023-05-03T18:59:03.030Z,10.87
2023-05-03T19:01:30.899Z,10.92
2023-05-03T19:03:58.466Z,10.95
2023-05-03T19:06:25.944Z,10.89
2023-05-03T19:08:54.617Z,10.90
2023-05-03T19:11:22.108Z,10.90
2023-05-03T19:13:49.607Z,10.87
2023-05-03T19:16:17.198Z,10.73
2023-05-03T19:18:45.527Z,10.73
2023-05-03T19:21:13.044Z,10.72
2023-05-03T19:23:40.448Z,10.68
2023-05-03T19:26:07.996Z,10.61
2023-05-03T19:28:35.703Z,10.69
2023-05-03T19:31:04.660Z,10.59
2023-05-03T19:33:32.390Z,10.57
2023-05-03T19:36:06.727Z,10.53
2023-05-03T19:38:38.490Z,10.54
2023-05-03T19:41:12.354Z,10.35
2023-05-03T19:43:40.849Z,10.39
2023-05-03T19:46:08.501Z,10.24
2023-05-03T19:48:36.717Z,10.10
2023-05-03T19:51:05.866Z,10.11
2023-05-03T19:53:33.959Z,10.16
2023-05-03T19:56:03.079Z,10.19
2023-05-03T19:58:32.157Z,10.02
2023-05-03T20:00:59.828Z,9.90
2023-05-03T20:03:27.877Z,9.80
2023-05-03T20:05:55.700Z,9.65
2023-05-03T20:08:24.335Z,9.58
2023-05-03T20:10:52.079Z,9.52
2023-05-03T20:13:19.520Z,9.42
2023-05-03T20:15:47.058Z,9.39
2023-05-03T20:18:14.789Z,9.28
2023-05-03T20:20:42.291Z,9.24
2023-05-03T20:23:09.796Z,9.23
2023-05-03T20:25:37.317Z,9.21
2023-05-03T20:28:05.055Z,9.16
2023-05-03T20:30:32.626Z,9.14
2023-05-03T20:33:00.228Z,9.09
2023-05-03T20:35:27.757Z,9.04
2023-05-03T20:37:55.464Z,9.04
2023-05-03T20:40:22.923Z,9.04
2023-05-03T20:42:50.344Z,9.07
2023-05-03T20:45:17.986Z,9.05
2023-05-03T20:47:45.402Z,8.94
2023-05-03T20:50:12.881Z,8.96
2023-05-03T20:52:40.310Z,8.93
2023-05-03T20:55:08.162Z,8.96
2023-05-03T20:57:42.388Z,8.90
2023-05-03T21:00:16.007Z,8.81
2023-05-03T21:02:44.033Z,8.71
2023-05-03T21:05:11.613Z,8.64
2023-05-03T21:07:39.312Z,8.55
2023-05-03T21:10:07.607Z,8.49
2023-05-03T21:12:35.468Z,8.44
2023-05-03T21:15:03.020Z,8.41
2023-05-03T21:17:30.587Z,8.42
2023-05-03T21:19:57.958Z,8.41
2023-05-03T21:22:25.467Z,8.37
2023-05-03T21:24:52.895Z,8.35
2023-05-03T21:27:22.161Z,8.33
2023-05-03T21:29:49.603Z,8.23
2023-05-03T21:32:16.956Z,8.17
2023-05-03T21:34:44.431Z,8.13
2023-05-03T21:37:11.977Z,8.10
2023-05-03T21:39:39.635Z,8.10
2023-05-03T21:42:07.208Z,8.10
2023-05-03T21:44:34.686Z,8.07
2023-05-03T21:47:03.065Z,8.09
2023-05-03T21:49:30.744Z,8.05
2023-05-03T21:51:58.362Z,7.97
2023-05-03T21:54:26.948Z,7.93
2023-05-03T21:56:54.875Z,7.86
2023-05-03T21:59:22.221Z,7.79
2023-05-03T22:01:50.369Z,7.77
2023-05-03T22:04:17.973Z,7.72
2023-05-03T22:06:45.708Z,7.67
2023-05-03T22:09:13.367Z,7.63
2023-05-03T22:11:41.506Z,7.56
2023-05-03T22:14:09.488Z,7.52
2023-05-03T22:16:38.813Z,7.49
2023-05-03T22:19:06.284Z,7.46
2023-05-03T22:21:34.054Z,7.42
2023-05-03T22:24:02.036Z,7.41
2023-05-03T22:26:29.930Z,7.42
2023-05-03T22:28:57.488Z,7.39
2023-05-03T22:31:25.094Z,7.38
2023-05-03T22:33:52.762Z,7.39
2023-05-03T22:36:20.205Z,7.40
2023-05-03T22:38:47.776Z,7.38
2023-05-03T22:41:15.324Z,7.37
2023-05-03T22:43:42.760Z,7.37
2023-05-03T22:46:10.299Z,7.37
2023-05-03T22:48:37.762Z,7.35
2023-05-03T22:51:05.481Z,7.32
2023-05-03T22:53:32.941Z,7.30
2023-05-03T22:56:02.165Z,7.28
2023-05-03T22:58:29.871Z,7.27
2023-05-03T23:00:57.540Z,7.25
2023-05-03T23:03:25.478Z,7.23
2023-05-03T23:05:54.198Z,7.22
2023-05-03T23:08:22.439Z,7.20
2023-05-03T23:10:50.611Z,7.21
2023-05-03T23:13:18.144Z,7.18
2023-05-03T23:15:45.730Z,7.14
2023-05-03T23:18:13.572Z,7.15
2023-05-03T23:20:41.037Z,7.13
2023-05-03T23:23:08.451Z,7.13
2023-05-03T23:25:35.875Z,7.11
2023-05-03T23:28:03.983Z,7.07
2023-05-03T23:30:31.732Z,7.02
2023-05-03T23:32:59.619Z,7.01
2023-05-03T23:35:27.396Z,6.99
2023-05-03T23:37:54.916Z,6.97
2023-05-03T23:40:22.415Z,6.93
2023-05-03T23:42:50.793Z,6.92
2023-05-03T23:45:18.714Z,6.91
2023-05-03T23:47:46.527Z,6.88
2023-05-03T23:50:14.120Z,6.86
2023-05-03T23:52:42.117Z,6.84
2023-05-03T23:55:10.435Z,6.82
2023-05-03T23:57:38.351Z,6.82
